sensor_id;sensor_type;location;lat;lon;timestamp;P1;durP1;ratioP1;P2;durP2;ratioP2
11604;SDS011;5858;43.076;25.626;2023-08-21T00:01:58;16.70;;;10.63;;
11604;SDS011;5858;43.076;25.626;2023-08-21T00:04:27;13.75;;;11.57;;
11604;SDS011;5858;43.076;25.626;2023-08-21T00:06:54;13.05;;;11.05;;
11604;SDS011;5858;43.076;25.626;2023-08-21T00:09:21;19.13;;;12.02;;
11604;SDS011;5858;43.076;25.626;2023-08-21T00:11:48;19.58;;;12.13;;
11604;SDS011;5858;43.076;25.626;2023-08-21T00:14:15;17.65;;;13.77;;
11604;SDS011;5858;43.076;25.626;2023-08-21T00:16:42;16.33;;;12.80;;
11604;SDS011;5858;43.076;25.626;2023-08-21T00:19:09;18.13;;;12.27;;
11604;SDS011;5858;43.076;25.626;2023-08-21T00:21:37;13.82;;;11.15;;
11604;SDS011;5858;43.076;25.626;2023-08-21T00:24:05;13.07;;;9.43;;
11604;SDS011;5858;43.076;25.626;2023-08-21T00:26:32;10.90;;;9.68;;
11604;SDS011;5858;43.076;25.626;2023-08-21T00:28:59;15.48;;;9.88;;
11604;SDS011;5858;43.076;25.626;2023-08-21T00:31:26;15.10;;;10.55;;
11604;SDS011;5858;43.076;25.626;2023-08-21T00:33:52;13.05;;;11.13;;
11604;SDS011;5858;43.076;25.626;2023-08-21T00:36:19;17.17;;;11.27;;
11604;SDS011;5858;43.076;25.626;2023-08-21T00:38:48;15.82;;;12.63;;
11604;SDS011;5858;43.076;25.626;2023-08-21T00:41:14;20.23;;;14.55;;
11604;SDS011;5858;43.076;25.626;2023-08-21T00:43:41;17.67;;;13.60;;
11604;SDS011;5858;43.076;25.626;2023-08-21T00:46:08;17.98;;;13.90;;
11604;SDS011;5858;43.076;25.626;2023-08-21T00:48:36;15.30;;;12.05;;
11604;SDS011;5858;43.076;25.626;2023-08-21T00:51:04;20.45;;;12.40;;
11604;SDS011;5858;43.076;25.626;2023-08-21T00:53:33;14.45;;;11.35;;
11604;SDS011;5858;43.076;25.626;2023-08-21T00:56:02;13.90;;;11.10;;
11604;SDS011;5858;43.076;25.626;2023-08-21T00:58:29;13.55;;;11.45;;
11604;SDS011;5858;43.076;25.626;2023-08-21T01:00:56;15.95;;;11.77;;
11604;SDS011;5858;43.076;25.626;2023-08-21T01:03:24;12.32;;;10.40;;
11604;SDS011;5858;43.076;25.626;2023-08-21T01:05:51;16.02;;;11.23;;
11604;SDS011;5858;43.076;25.626;2023-08-21T01:08:19;13.85;;;10.57;;
11604;SDS011;5858;43.076;25.626;2023-08-21T01:10:53;20.38;;;15.10;;
11604;SDS011;5858;43.076;25.626;2023-08-21T01:13:27;24.15;;;16.05;;
11604;SDS011;5858;43.076;25.626;2023-08-21T01:16:05;22.98;;;18.17;;
11604;SDS011;5858;43.076;25.626;2023-08-21T01:18:34;31.73;;;23.42;;
11604;SDS011;5858;43.076;25.626;2023-08-21T01:21:02;29.85;;;22.48;;
11604;SDS011;5858;43.076;25.626;2023-08-21T01:23:32;35.22;;;23.48;;
11604;SDS011;5858;43.076;25.626;2023-08-21T01:26:00;29.10;;;18.23;;
11604;SDS011;5858;43.076;25.626;2023-08-21T01:28:27;20.75;;;17.15;;
11604;SDS011;5858;43.076;25.626;2023-08-21T01:30:57;22.88;;;17.95;;
11604;SDS011;5858;43.076;25.626;2023-08-21T01:33:29;28.10;;;18.33;;
11604;SDS011;5858;43.076;25.626;2023-08-21T01:36:00;17.60;;;14.48;;
11604;SDS011;5858;43.076;25.626;2023-08-21T01:38:30;20.48;;;14.63;;
11604;SDS011;5858;43.076;25.626;2023-08-21T01:41:00;19.83;;;14.23;;
11604;SDS011;5858;43.076;25.626;2023-08-21T01:43:28;24.33;;;15.93;;
11604;SDS011;5858;43.076;25.626;2023-08-21T01:45:55;20.60;;;14.43;;
11604;SDS011;5858;43.076;25.626;2023-08-21T01:48:22;17.85;;;14.88;;
11604;SDS011;5858;43.076;25.626;2023-08-21T01:50:49;20.70;;;16.27;;
11604;SDS011;5858;43.076;25.626;2023-08-21T01:53:16;21.90;;;15.68;;
11604;SDS011;5858;43.076;25.626;2023-08-21T01:55:44;18.50;;;16.13;;
11604;SDS011;5858;43.076;25.626;2023-08-21T01:58:12;20.02;;;16.65;;
11604;SDS011;5858;43.076;25.626;2023-08-21T02:00:39;26.70;;;19.08;;
11604;SDS011;5858;43.076;25.626;2023-08-21T02:03:08;29.10;;;21.10;;
11604;SDS011;5858;43.076;25.626;2023-08-21T02:05:39;26.25;;;19.00;;
11604;SDS011;5858;43.076;25.626;2023-08-21T02:08:06;29.60;;;19.15;;
11604;SDS011;5858;43.076;25.626;2023-08-21T02:10:35;23.60;;;18.42;;
11604;SDS011;5858;43.076;25.626;2023-08-21T02:13:04;23.85;;;17.75;;
11604;SDS011;5858;43.076;25.626;2023-08-21T02:15:31;24.20;;;17.10;;
11604;SDS011;5858;43.076;25.626;2023-08-21T02:17:58;20.88;;;15.98;;
11604;SDS011;5858;43.076;25.626;2023-08-21T02:20:25;21.30;;;16.48;;
11604;SDS011;5858;43.076;25.626;2023-08-21T02:22:52;19.55;;;15.65;;
11604;SDS011;5858;43.076;25.626;2023-08-21T02:25:19;17.33;;;13.70;;
11604;SDS011;5858;43.076;25.626;2023-08-21T02:27:46;21.92;;;12.75;;
11604;SDS011;5858;43.076;25.626;2023-08-21T02:30:15;17.27;;;12.90;;
11604;SDS011;5858;43.076;25.626;2023-08-21T02:32:43;15.02;;;12.65;;
11604;SDS011;5858;43.076;25.626;2023-08-21T02:35:10;16.48;;;12.50;;
11604;SDS011;5858;43.076;25.626;2023-08-21T02:37:37;19.67;;;12.57;;
11604;SDS011;5858;43.076;25.626;2023-08-21T02:40:05;15.73;;;13.35;;
11604;SDS011;5858;43.076;25.626;2023-08-21T02:42:34;15.68;;;11.90;;
11604;SDS011;5858;43.076;25.626;2023-08-21T02:45:01;19.55;;;12.30;;
11604;SDS011;5858;43.076;25.626;2023-08-21T02:47:36;14.55;;;13.02;;
11604;SDS011;5858;43.076;25.626;2023-08-21T02:50:04;17.02;;;13.25;;
11604;SDS011;5858;43.076;25.626;2023-08-21T02:52:33;15.05;;;12.32;;
11604;SDS011;5858;43.076;25.626;2023-08-21T02:55:01;19.92;;;14.25;;
11604;SDS011;5858;43.076;25.626;2023-08-21T02:57:28;18.67;;;14.52;;
11604;SDS011;5858;43.076;25.626;2023-08-21T02:59:57;19.17;;;14.80;;
11604;SDS011;5858;43.076;25.626;2023-08-21T03:02:24;24.13;;;14.75;;
11604;SDS011;5858;43.076;25.626;2023-08-21T03:04:53;18.90;;;13.30;;
11604;SDS011;5858;43.076;25.626;2023-08-21T03:10:10;18.45;;;12.95;;
11604;SDS011;5858;43.076;25.626;2023-08-21T03:12:37;14.00;;;11.90;;
11604;SDS011;5858;43.076;25.626;2023-08-21T03:15:05;15.05;;;13.40;;
11604;SDS011;5858;43.076;25.626;2023-08-21T03:17:33;15.50;;;11.90;;
11604;SDS011;5858;43.076;25.626;2023-08-21T03:20:01;16.88;;;12.65;;
11604;SDS011;5858;43.076;25.626;2023-08-21T03:22:30;15.88;;;12.80;;
11604;SDS011;5858;43.076;25.626;2023-08-21T03:24:58;18.65;;;13.30;;
11604;SDS011;5858;43.076;25.626;2023-08-21T03:27:25;15.05;;;12.75;;
11604;SDS011;5858;43.076;25.626;2023-08-21T03:29:52;15.00;;;12.05;;
11604;SDS011;5858;43.076;25.626;2023-08-21T03:32:19;16.80;;;11.45;;
11604;SDS011;5858;43.076;25.626;2023-08-21T03:34:46;14.98;;;11.75;;
11604;SDS011;5858;43.076;25.626;2023-08-21T03:37:15;19.05;;;13.70;;
11604;SDS011;5858;43.076;25.626;2023-08-21T03:39:42;18.00;;;12.88;;
11604;SDS011;5858;43.076;25.626;2023-08-21T03:42:09;15.15;;;13.32;;
11604;SDS011;5858;43.076;25.626;2023-08-21T03:44:37;21.73;;;14.70;;
11604;SDS011;5858;43.076;25.626;2023-08-21T03:47:05;20.63;;;14.15;;
11604;SDS011;5858;43.076;25.626;2023-08-21T03:49:32;19.38;;;13.65;;
11604;SDS011;5858;43.076;25.626;2023-08-21T03:51:59;15.73;;;12.43;;
11604;SDS011;5858;43.076;25.626;2023-08-21T03:54:27;16.73;;;13.20;;
11604;SDS011;5858;43.076;25.626;2023-08-21T03:56:54;15.63;;;14.02;;
11604;SDS011;5858;43.076;25.626;2023-08-21T03:59:22;18.67;;;15.85;;
11604;SDS011;5858;43.076;25.626;2023-08-21T04:01:58;19.60;;;15.40;;
11604;SDS011;5858;43.076;25.626;2023-08-21T04:04:28;21.83;;;15.55;;
11604;SDS011;5858;43.076;25.626;2023-08-21T04:06:58;20.27;;;15.70;;
11604;SDS011;5858;43.076;25.626;2023-08-21T04:09:25;39.47;;;29.02;;
11604;SDS011;5858;43.076;25.626;2023-08-21T04:11:53;34.20;;;16.52;;
11604;SDS011;5858;43.076;25.626;2023-08-21T04:14:20;26.60;;;16.80;;
11604;SDS011;5858;43.076;25.626;2023-08-21T04:16:47;21.50;;;17.58;;
11604;SDS011;5858;43.076;25.626;2023-08-21T04:19:14;23.00;;;16.27;;
11604;SDS011;5858;43.076;25.626;2023-08-21T04:21:41;20.55;;;16.17;;
11604;SDS011;5858;43.076;25.626;2023-08-21T04:24:08;23.38;;;16.00;;
11604;SDS011;5858;43.076;25.626;2023-08-21T04:26:35;23.38;;;14.98;;
11604;SDS011;5858;43.076;25.626;2023-08-21T04:29:03;21.20;;;14.27;;
11604;SDS011;5858;43.076;25.626;2023-08-21T04:31:30;18.98;;;15.98;;
11604;SDS011;5858;43.076;25.626;2023-08-21T04:33:58;18.45;;;14.32;;
11604;SDS011;5858;43.076;25.626;2023-08-21T04:36:25;21.60;;;16.38;;
11604;SDS011;5858;43.076;25.626;2023-08-21T04:38:52;21.88;;;16.77;;
11604;SDS011;5858;43.076;25.626;2023-08-21T04:41:19;26.55;;;17.15;;
11604;SDS011;5858;43.076;25.626;2023-08-21T04:43:46;23.48;;;17.55;;
11604;SDS011;5858;43.076;25.626;2023-08-21T04:46:15;21.23;;;16.05;;
11604;SDS011;5858;43.076;25.626;2023-08-21T04:48:42;23.38;;;17.80;;
11604;SDS011;5858;43.076;25.626;2023-08-21T04:51:09;17.98;;;14.48;;
11604;SDS011;5858;43.076;25.626;2023-08-21T04:53:36;18.60;;;13.27;;
11604;SDS011;5858;43.076;25.626;2023-08-21T04:56:05;19.63;;;13.50;;
11604;SDS011;5858;43.076;25.626;2023-08-21T04:58:32;19.33;;;13.15;;
11604;SDS011;5858;43.076;25.626;2023-08-21T05:00:59;24.45;;;18.42;;
11604;SDS011;5858;43.076;25.626;2023-08-21T05:03:28;18.13;;;12.95;;
11604;SDS011;5858;43.076;25.626;2023-08-21T05:05:55;20.25;;;12.18;;
11604;SDS011;5858;43.076;25.626;2023-08-21T05:08:23;19.90;;;11.52;;
11604;SDS011;5858;43.076;25.626;2023-08-21T05:10:57;16.05;;;10.90;;
11604;SDS011;5858;43.076;25.626;2023-08-21T05:13:25;15.55;;;11.40;;
11604;SDS011;5858;43.076;25.626;2023-08-21T05:15:59;13.57;;;10.82;;
11604;SDS011;5858;43.076;25.626;2023-08-21T05:18:31;12.52;;;10.70;;
11604;SDS011;5858;43.076;25.626;2023-08-21T05:21:03;13.23;;;10.95;;
11604;SDS011;5858;43.076;25.626;2023-08-21T05:23:33;12.70;;;11.35;;
11604;SDS011;5858;43.076;25.626;2023-08-21T05:26:00;16.27;;;11.25;;
11604;SDS011;5858;43.076;25.626;2023-08-21T05:31:24;11.90;;;10.68;;
11604;SDS011;5858;43.076;25.626;2023-08-21T05:34:03;11.32;;;9.95;;
11604;SDS011;5858;43.076;25.626;2023-08-21T05:36:33;14.55;;;10.40;;
11604;SDS011;5858;43.076;25.626;2023-08-21T05:39:10;13.50;;;9.82;;
11604;SDS011;5858;43.076;25.626;2023-08-21T05:41:50;20.10;;;10.25;;
11604;SDS011;5858;43.076;25.626;2023-08-21T05:44:54;15.25;;;10.40;;
11604;SDS011;5858;43.076;25.626;2023-08-21T05:47:52;14.52;;;10.27;;
11604;SDS011;5858;43.076;25.626;2023-08-21T05:50:38;18.90;;;12.27;;
11604;SDS011;5858;43.076;25.626;2023-08-21T05:53:51;19.90;;;12.25;;
11604;SDS011;5858;43.076;25.626;2023-08-21T05:56:24;23.88;;;13.00;;
11604;SDS011;5858;43.076;25.626;2023-08-21T05:58:52;17.15;;;12.70;;
11604;SDS011;5858;43.076;25.626;2023-08-21T06:01:38;18.58;;;14.02;;
11604;SDS011;5858;43.076;25.626;2023-08-21T06:07:46;17.95;;;14.35;;
11604;SDS011;5858;43.076;25.626;2023-08-21T06:10:19;22.58;;;15.30;;
11604;SDS011;5858;43.076;25.626;2023-08-21T06:13:00;22.00;;;15.35;;
11604;SDS011;5858;43.076;25.626;2023-08-21T06:18:46;18.27;;;13.75;;
11604;SDS011;5858;43.076;25.626;2023-08-21T06:35:02;19.40;;;13.93;;
11604;SDS011;5858;43.076;25.626;2023-08-21T06:40:41;21.73;;;14.50;;
11604;SDS011;5858;43.076;25.626;2023-08-21T06:41:09;13.48;;;8.13;;
11604;SDS011;5858;43.076;25.626;2023-08-21T06:57:19;7.53;;;5.45;;
11604;SDS011;5858;43.076;25.626;2023-08-21T06:59:59;7.60;;;5.88;;
11604;SDS011;5858;43.076;25.626;2023-08-21T07:03:12;5.78;;;5.07;;
11604;SDS011;5858;43.076;25.626;2023-08-21T07:06:12;7.70;;;5.55;;
11604;SDS011;5858;43.076;25.626;2023-08-21T07:08:41;10.27;;;5.45;;
11604;SDS011;5858;43.076;25.626;2023-08-21T07:11:12;7.75;;;5.57;;
11604;SDS011;5858;43.076;25.626;2023-08-21T07:13:39;6.60;;;5.40;;
11604;SDS011;5858;43.076;25.626;2023-08-21T07:16:08;7.38;;;5.47;;
11604;SDS011;5858;43.076;25.626;2023-08-21T07:18:36;6.47;;;5.55;;
11604;SDS011;5858;43.076;25.626;2023-08-21T07:21:03;6.63;;;5.30;;
11604;SDS011;5858;43.076;25.626;2023-08-21T07:23:30;6.47;;;5.55;;
11604;SDS011;5858;43.076;25.626;2023-08-21T07:25:57;6.68;;;5.20;;
11604;SDS011;5858;43.076;25.626;2023-08-21T07:28:29;8.45;;;5.65;;
11604;SDS011;5858;43.076;25.626;2023-08-21T07:30:56;6.72;;;5.75;;
11604;SDS011;5858;43.076;25.626;2023-08-21T07:33:26;9.15;;;5.78;;
11604;SDS011;5858;43.076;25.626;2023-08-21T07:36:07;6.47;;;5.85;;
11604;SDS011;5858;43.076;25.626;2023-08-21T07:38:50;6.38;;;5.78;;
11604;SDS011;5858;43.076;25.626;2023-08-21T07:41:19;5.28;;;4.72;;
11604;SDS011;5858;43.076;25.626;2023-08-21T07:43:49;8.88;;;5.13;;
11604;SDS011;5858;43.076;25.626;2023-08-21T07:46:21;6.18;;;4.57;;
11604;SDS011;5858;43.076;25.626;2023-08-21T07:48:49;7.40;;;4.65;;
11604;SDS011;5858;43.076;25.626;2023-08-21T07:51:30;7.13;;;5.38;;
11604;SDS011;5858;43.076;25.626;2023-08-21T07:54:00;7.25;;;5.05;;
11604;SDS011;5858;43.076;25.626;2023-08-21T07:56:30;5.47;;;4.72;;
11604;SDS011;5858;43.076;25.626;2023-08-21T07:58:58;5.88;;;4.50;;
11604;SDS011;5858;43.076;25.626;2023-08-21T08:01:25;8.40;;;4.40;;
11604;SDS011;5858;43.076;25.626;2023-08-21T08:03:52;6.30;;;4.40;;
11604;SDS011;5858;43.076;25.626;2023-08-21T08:06:19;6.68;;;4.70;;
11604;SDS011;5858;43.076;25.626;2023-08-21T08:08:46;4.65;;;4.25;;
11604;SDS011;5858;43.076;25.626;2023-08-21T08:11:13;5.07;;;4.18;;
11604;SDS011;5858;43.076;25.626;2023-08-21T08:13:40;5.40;;;4.60;;
11604;SDS011;5858;43.076;25.626;2023-08-21T08:16:09;7.35;;;5.50;;
11604;SDS011;5858;43.076;25.626;2023-08-21T08:18:36;5.47;;;4.57;;
11604;SDS011;5858;43.076;25.626;2023-08-21T08:21:02;5.03;;;4.50;;
11604;SDS011;5858;43.076;25.626;2023-08-21T08:23:30;5.45;;;4.65;;
11604;SDS011;5858;43.076;25.626;2023-08-21T08:25:57;6.75;;;4.63;;
11604;SDS011;5858;43.076;25.626;2023-08-21T08:28:23;6.25;;;4.55;;
11604;SDS011;5858;43.076;25.626;2023-08-21T08:30:50;10.80;;;5.30;;
11604;SDS011;5858;43.076;25.626;2023-08-21T08:33:19;4.60;;;4.20;;
11604;SDS011;5858;43.076;25.626;2023-08-21T08:35:46;6.22;;;4.32;;
11604;SDS011;5858;43.076;25.626;2023-08-21T08:38:12;6.68;;;4.85;;
11604;SDS011;5858;43.076;25.626;2023-08-21T08:40:42;7.85;;;4.55;;
11604;SDS011;5858;43.076;25.626;2023-08-21T08:43:11;5.68;;;4.57;;
11604;SDS011;5858;43.076;25.626;2023-08-21T08:45:39;6.15;;;4.68;;
11604;SDS011;5858;43.076;25.626;2023-08-21T08:48:07;7.07;;;4.55;;
11604;SDS011;5858;43.076;25.626;2023-08-21T08:50:36;10.07;;;4.60;;
11604;SDS011;5858;43.076;25.626;2023-08-21T08:53:05;10.45;;;5.13;;
11604;SDS011;5858;43.076;25.626;2023-08-21T08:55:33;5.03;;;4.47;;
11604;SDS011;5858;43.076;25.626;2023-08-21T08:58:02;5.90;;;4.75;;
11604;SDS011;5858;43.076;25.626;2023-08-21T09:00:30;6.00;;;4.55;;
11604;SDS011;5858;43.076;25.626;2023-08-21T09:02:57;6.10;;;5.13;;
11604;SDS011;5858;43.076;25.626;2023-08-21T09:05:24;6.50;;;4.40;;
11604;SDS011;5858;43.076;25.626;2023-08-21T09:08:09;7.47;;;4.60;;
11604;SDS011;5858;43.076;25.626;2023-08-21T09:10:36;5.32;;;4.65;;
11604;SDS011;5858;43.076;25.626;2023-08-21T09:13:08;7.95;;;4.88;;
11604;SDS011;5858;43.076;25.626;2023-08-21T09:15:36;5.28;;;4.78;;
11604;SDS011;5858;43.076;25.626;2023-08-21T09:18:03;5.53;;;5.00;;
11604;SDS011;5858;43.076;25.626;2023-08-21T09:20:34;4.63;;;4.32;;
11604;SDS011;5858;43.076;25.626;2023-08-21T09:23:01;5.00;;;4.25;;
11604;SDS011;5858;43.076;25.626;2023-08-21T09:25:30;4.88;;;4.38;;
11604;SDS011;5858;43.076;25.626;2023-08-21T09:28:03;5.85;;;4.25;;
11604;SDS011;5858;43.076;25.626;2023-08-21T09:30:35;8.13;;;4.70;;
11604;SDS011;5858;43.076;25.626;2023-08-21T09:33:10;5.95;;;4.90;;
11604;SDS011;5858;43.076;25.626;2023-08-21T09:35:37;4.63;;;4.18;;
11604;SDS011;5858;43.076;25.626;2023-08-21T09:38:04;5.18;;;3.97;;
11604;SDS011;5858;43.076;25.626;2023-08-21T09:40:33;4.47;;;4.18;;
11604;SDS011;5858;43.076;25.626;2023-08-21T09:43:00;8.38;;;4.93;;
11604;SDS011;5858;43.076;25.626;2023-08-21T09:45:30;5.30;;;4.75;;
11604;SDS011;5858;43.076;25.626;2023-08-21T09:47:57;6.88;;;4.88;;
11604;SDS011;5858;43.076;25.626;2023-08-21T09:50:25;6.32;;;4.68;;
11604;SDS011;5858;43.076;25.626;2023-08-21T09:52:55;7.30;;;5.00;;
11604;SDS011;5858;43.076;25.626;2023-08-21T09:55:23;6.13;;;4.70;;
11604;SDS011;5858;43.076;25.626;2023-08-21T09:57:52;9.15;;;5.20;;
11604;SDS011;5858;43.076;25.626;2023-08-21T10:00:23;5.32;;;4.80;;
11604;SDS011;5858;43.076;25.626;2023-08-21T10:02:52;5.50;;;4.65;;
11604;SDS011;5858;43.076;25.626;2023-08-21T10:05:20;5.30;;;4.80;;
11604;SDS011;5858;43.076;25.626;2023-08-21T10:07:48;6.28;;;4.15;;
11604;SDS011;5858;43.076;25.626;2023-08-21T10:10:16;6.22;;;4.35;;
11604;SDS011;5858;43.076;25.626;2023-08-21T10:12:43;5.80;;;4.88;;
11604;SDS011;5858;43.076;25.626;2023-08-21T10:15:12;5.32;;;4.60;;
11604;SDS011;5858;43.076;25.626;2023-08-21T10:17:39;4.68;;;4.28;;
11604;SDS011;5858;43.076;25.626;2023-08-21T10:20:09;6.30;;;4.10;;
11604;SDS011;5858;43.076;25.626;2023-08-21T10:22:38;5.55;;;4.40;;
11604;SDS011;5858;43.076;25.626;2023-08-21T10:25:14;8.45;;;4.47;;
11604;SDS011;5858;43.076;25.626;2023-08-21T10:27:42;5.85;;;5.25;;
11604;SDS011;5858;43.076;25.626;2023-08-21T10:30:23;6.32;;;4.40;;
11604;SDS011;5858;43.076;25.626;2023-08-21T10:32:52;4.95;;;4.45;;
11604;SDS011;5858;43.076;25.626;2023-08-21T10:35:21;4.55;;;4.18;;
11604;SDS011;5858;43.076;25.626;2023-08-21T10:38:05;7.82;;;4.60;;
11604;SDS011;5858;43.076;25.626;2023-08-21T10:40:41;7.20;;;5.00;;
11604;SDS011;5858;43.076;25.626;2023-08-21T10:43:36;5.35;;;4.85;;
11604;SDS011;5858;43.076;25.626;2023-08-21T10:46:06;5.07;;;4.57;;
11604;SDS011;5858;43.076;25.626;2023-08-21T10:48:34;6.53;;;4.38;;
11604;SDS011;5858;43.076;25.626;2023-08-21T10:51:07;5.00;;;4.47;;
11604;SDS011;5858;43.076;25.626;2023-08-21T10:53:35;5.95;;;4.28;;
11604;SDS011;5858;43.076;25.626;2023-08-21T10:56:05;5.70;;;4.20;;
11604;SDS011;5858;43.076;25.626;2023-08-21T10:58:34;4.60;;;4.20;;
11604;SDS011;5858;43.076;25.626;2023-08-21T11:01:06;6.35;;;4.18;;
11604;SDS011;5858;43.076;25.626;2023-08-21T11:03:34;4.68;;;4.10;;
11604;SDS011;5858;43.076;25.626;2023-08-21T11:06:06;4.80;;;4.40;;
11604;SDS011;5858;43.076;25.626;2023-08-21T11:08:36;5.03;;;4.30;;
11604;SDS011;5858;43.076;25.626;2023-08-21T11:11:04;5.13;;;4.53;;
11604;SDS011;5858;43.076;25.626;2023-08-21T11:13:32;6.20;;;4.80;;
11604;SDS011;5858;43.076;25.626;2023-08-21T11:16:00;6.55;;;4.93;;
11604;SDS011;5858;43.076;25.626;2023-08-21T11:18:31;5.10;;;4.60;;
11604;SDS011;5858;43.076;25.626;2023-08-21T11:21:04;5.88;;;4.75;;
11604;SDS011;5858;43.076;25.626;2023-08-21T11:23:34;5.25;;;4.75;;
11604;SDS011;5858;43.076;25.626;2023-08-21T11:26:02;6.35;;;4.70;;
11604;SDS011;5858;43.076;25.626;2023-08-21T11:28:32;4.80;;;4.40;;
11604;SDS011;5858;43.076;25.626;2023-08-21T11:30:59;5.72;;;4.50;;
11604;SDS011;5858;43.076;25.626;2023-08-21T11:33:31;6.25;;;4.28;;
11604;SDS011;5858;43.076;25.626;2023-08-21T11:35:59;4.72;;;4.32;;
11604;SDS011;5858;43.076;25.626;2023-08-21T11:38:41;5.13;;;4.72;;
11604;SDS011;5858;43.076;25.626;2023-08-21T11:41:08;9.30;;;4.20;;
11604;SDS011;5858;43.076;25.626;2023-08-21T11:43:36;6.65;;;4.82;;
11604;SDS011;5858;43.076;25.626;2023-08-21T11:46:04;5.28;;;4.70;;
11604;SDS011;5858;43.076;25.626;2023-08-21T11:48:49;5.05;;;4.57;;
11604;SDS011;5858;43.076;25.626;2023-08-21T11:51:49;4.38;;;3.97;;
11604;SDS011;5858;43.076;25.626;2023-08-21T11:54:19;7.15;;;4.65;;
11604;SDS011;5858;43.076;25.626;2023-08-21T11:56:47;7.63;;;4.53;;
11604;SDS011;5858;43.076;25.626;2023-08-21T11:59:21;5.22;;;4.53;;
11604;SDS011;5858;43.076;25.626;2023-08-21T12:01:49;5.95;;;4.85;;
11604;SDS011;5858;43.076;25.626;2023-08-21T12:04:24;5.80;;;4.68;;
11604;SDS011;5858;43.076;25.626;2023-08-21T12:07:00;5.20;;;4.70;;
11604;SDS011;5858;43.076;25.626;2023-08-21T12:09:45;9.00;;;4.70;;
11604;SDS011;5858;43.076;25.626;2023-08-21T12:12:17;5.20;;;4.75;;
11604;SDS011;5858;43.076;25.626;2023-08-21T12:14:47;5.85;;;4.47;;
11604;SDS011;5858;43.076;25.626;2023-08-21T12:17:18;4.85;;;4.45;;
11604;SDS011;5858;43.076;25.626;2023-08-21T12:19:50;4.85;;;4.45;;
11604;SDS011;5858;43.076;25.626;2023-08-21T12:22:20;4.95;;;4.47;;
11604;SDS011;5858;43.076;25.626;2023-08-21T12:25:02;5.45;;;4.38;;
11604;SDS011;5858;43.076;25.626;2023-08-21T12:27:30;6.43;;;4.90;;
11604;SDS011;5858;43.076;25.626;2023-08-21T12:29:57;5.53;;;5.03;;
11604;SDS011;5858;43.076;25.626;2023-08-21T12:32:36;5.55;;;4.93;;
11604;SDS011;5858;43.076;25.626;2023-08-21T12:35:18;5.80;;;4.38;;
11604;SDS011;5858;43.076;25.626;2023-08-21T12:38:09;5.43;;;4.28;;
11604;SDS011;5858;43.076;25.626;2023-08-21T12:40:38;4.30;;;4.00;;
11604;SDS011;5858;43.076;25.626;2023-08-21T12:43:05;4.90;;;4.40;;
11604;SDS011;5858;43.076;25.626;2023-08-21T12:45:42;6.65;;;4.35;;
11604;SDS011;5858;43.076;25.626;2023-08-21T12:48:10;6.32;;;4.40;;
11604;SDS011;5858;43.076;25.626;2023-08-21T12:50:45;9.90;;;5.45;;
11604;SDS011;5858;43.076;25.626;2023-08-21T12:53:13;5.60;;;5.05;;
11604;SDS011;5858;43.076;25.626;2023-08-21T12:55:43;11.23;;;7.18;;
11604;SDS011;5858;43.076;25.626;2023-08-21T12:58:13;17.27;;;9.10;;
11604;SDS011;5858;43.076;25.626;2023-08-21T14:21:23;10.00;;;6.30;;
11604;SDS011;5858;43.076;25.626;2023-08-21T14:24:23;7.38;;;5.90;;
11604;SDS011;5858;43.076;25.626;2023-08-21T14:30:39;9.65;;;5.97;;
11604;SDS011;5858;43.076;25.626;2023-08-21T14:33:48;12.98;;;7.20;;
11604;SDS011;5858;43.076;25.626;2023-08-21T14:39:31;7.78;;;5.85;;
11604;SDS011;5858;43.076;25.626;2023-08-21T14:49:38;6.93;;;5.82;;
11604;SDS011;5858;43.076;25.626;2023-08-21T14:52:17;7.53;;;5.40;;
11604;SDS011;5858;43.076;25.626;2023-08-21T14:54:52;6.30;;;5.53;;
11604;SDS011;5858;43.076;25.626;2023-08-21T14:57:23;6.15;;;5.55;;
11604;SDS011;5858;43.076;25.626;2023-08-21T15:00:01;6.57;;;4.90;;
11604;SDS011;5858;43.076;25.626;2023-08-21T15:05:32;7.10;;;5.20;;
11604;SDS011;5858;43.076;25.626;2023-08-21T15:08:02;7.90;;;5.63;;
11604;SDS011;5858;43.076;25.626;2023-08-21T15:10:35;7.13;;;5.75;;
11604;SDS011;5858;43.076;25.626;2023-08-21T15:13:31;6.82;;;6.22;;
11604;SDS011;5858;43.076;25.626;2023-08-21T15:16:07;7.47;;;6.10;;
11604;SDS011;5858;43.076;25.626;2023-08-21T15:18:41;6.82;;;5.85;;
11604;SDS011;5858;43.076;25.626;2023-08-21T15:21:17;7.93;;;5.88;;
11604;SDS011;5858;43.076;25.626;2023-08-21T15:23:49;14.57;;;6.20;;
11604;SDS011;5858;43.076;25.626;2023-08-21T15:26:22;7.70;;;6.18;;
11604;SDS011;5858;43.076;25.626;2023-08-21T15:29:00;8.45;;;6.22;;
11604;SDS011;5858;43.076;25.626;2023-08-21T15:32:02;8.63;;;6.63;;
11604;SDS011;5858;43.076;25.626;2023-08-21T15:34:45;12.95;;;6.70;;
11604;SDS011;5858;43.076;25.626;2023-08-21T15:37:28;11.75;;;5.90;;
11604;SDS011;5858;43.076;25.626;2023-08-21T15:40:08;8.07;;;6.45;;
11604;SDS011;5858;43.076;25.626;2023-08-21T15:42:44;8.55;;;6.03;;
11604;SDS011;5858;43.076;25.626;2023-08-21T15:45:24;8.73;;;6.20;;
11604;SDS011;5858;43.076;25.626;2023-08-21T15:47:56;6.88;;;5.30;;
11604;SDS011;5858;43.076;25.626;2023-08-21T15:50:35;7.53;;;6.00;;
11604;SDS011;5858;43.076;25.626;2023-08-21T15:53:11;10.38;;;6.18;;
11604;SDS011;5858;43.076;25.626;2023-08-21T16:05:25;7.22;;;5.78;;
11604;SDS011;5858;43.076;25.626;2023-08-21T16:08:52;7.72;;;5.70;;
11604;SDS011;5858;43.076;25.626;2023-08-21T16:11:33;11.88;;;6.88;;
11604;SDS011;5858;43.076;25.626;2023-08-21T16:14:38;25.83;;;6.80;;
11604;SDS011;5858;43.076;25.626;2023-08-21T16:17:05;7.90;;;7.10;;
11604;SDS011;5858;43.076;25.626;2023-08-21T16:19:35;7.88;;;6.53;;
11604;SDS011;5858;43.076;25.626;2023-08-21T16:22:04;12.13;;;7.80;;
11604;SDS011;5858;43.076;25.626;2023-08-21T16:24:31;10.88;;;6.65;;
11604;SDS011;5858;43.076;25.626;2023-08-21T16:27:05;8.50;;;6.43;;
11604;SDS011;5858;43.076;25.626;2023-08-21T16:29:32;5.85;;;5.32;;
11604;SDS011;5858;43.076;25.626;2023-08-21T16:32:01;7.60;;;5.28;;
11604;SDS011;5858;43.076;25.626;2023-08-21T16:34:28;9.20;;;5.78;;
11604;SDS011;5858;43.076;25.626;2023-08-21T16:36:57;6.38;;;5.65;;
11604;SDS011;5858;43.076;25.626;2023-08-21T16:39:24;6.72;;;5.10;;
11604;SDS011;5858;43.076;25.626;2023-08-21T16:41:51;8.02;;;5.50;;
11604;SDS011;5858;43.076;25.626;2023-08-21T16:44:26;9.50;;;5.55;;
11604;SDS011;5858;43.076;25.626;2023-08-21T16:47:22;8.15;;;5.78;;
11604;SDS011;5858;43.076;25.626;2023-08-21T16:49:55;8.90;;;6.35;;
11604;SDS011;5858;43.076;25.626;2023-08-21T16:52:24;6.13;;;5.53;;
11604;SDS011;5858;43.076;25.626;2023-08-21T16:54:55;7.95;;;6.28;;
11604;SDS011;5858;43.076;25.626;2023-08-21T16:57:26;7.85;;;6.05;;
11604;SDS011;5858;43.076;25.626;2023-08-21T16:59:53;9.95;;;6.43;;
11604;SDS011;5858;43.076;25.626;2023-08-21T17:02:20;10.05;;;6.90;;
11604;SDS011;5858;43.076;25.626;2023-08-21T17:04:49;9.82;;;6.93;;
11604;SDS011;5858;43.076;25.626;2023-08-21T17:07:18;12.88;;;7.63;;
11604;SDS011;5858;43.076;25.626;2023-08-21T17:09:48;12.00;;;7.35;;
11604;SDS011;5858;43.076;25.626;2023-08-21T17:12:15;12.77;;;6.95;;
11604;SDS011;5858;43.076;25.626;2023-08-21T17:14:43;9.98;;;7.30;;
11604;SDS011;5858;43.076;25.626;2023-08-21T17:17:24;11.88;;;7.72;;
11604;SDS011;5858;43.076;25.626;2023-08-21T17:19:51;11.10;;;7.15;;
11604;SDS011;5858;43.076;25.626;2023-08-21T17:22:19;13.98;;;8.38;;
11604;SDS011;5858;43.076;25.626;2023-08-21T17:24:50;12.80;;;7.10;;
11604;SDS011;5858;43.076;25.626;2023-08-21T17:27:17;11.32;;;8.35;;
11604;SDS011;5858;43.076;25.626;2023-08-21T17:29:45;12.45;;;10.00;;